Shin Mei Maru — JG5617 — position and weather

sailwx.info

Track history (hours):
 
Tides and Currents Weather Stations Pressure Air Temp Water Temp Dewpoint Dewpoint Depression Visibility Wind Speed Wind Dir Waves Ship Positions

Shin Mei Maru

Last reported at 2014-Sep-20 12:12 UTC. Time now 2014-Sep-20 22:06 UTC.
Position N 35°05' E 139°43'.

Length 160 m; draft 6.8 m.

Type: Cargo ship. MMSI: 431100922.

Date/timePositionNaut miles runAvg speedWind from/ knotsBaromVisibWave heightAir tempDewpointWater temp
2014-Sep-20 12:12N 35°05' E 139°43'1216.3
2014-Sep-20 11:29N 35°16' E 139°46'1111.8
2014-Sep-20 10:33N 35°27' E 139°47'8 1.4
2014-Sep-20 04:33N 35°35' E 139°47'1313.3
2014-Sep-20 03:33N 35°22' E 139°45'1313.1
2014-Sep-20 02:33N 35°09' E 139°46'24516.2
2014-Sep-19 11:22N 34°05' E 134°58'1619.7
2014-Sep-19 10:32N 34°21' E 135°00'1919.2
2014-Sep-19 09:33N 34°34' E 135°18'7 6.5
2014-Sep-19 08:33N 34°37' E 135°25'0 0.0
2014-Sep-19 07:19N 34°37' E 135°25'0 0.0
2014-Sep-19 06:25N 34°37' E 135°25'0 0.0
2014-Sep-19 05:25N 34°37' E 135°25'0 0.0
2014-Sep-19 04:19N 34°37' E 135°25'0 0.0
2014-Sep-19 02:31N 34°37' E 135°25'0 0.0
2014-Sep-19 00:33N 34°37' E 135°25'1312.8
2014-Sep-18 23:33N 34°30' E 135°12'1716.4
2014-Sep-18 22:33N 34°17' E 134°59'1616.6
2014-Sep-18 21:33N 34°01' E 134°59'24515.3
2014-Sep-18 05:33N 35°09' E 139°44'1313.1
2014-Sep-18 04:33N 35°22' E 139°42'1414.0
2014-Sep-18 03:33N 35°35' E 139°48'3 3.2
2014-Sep-18 02:33N 35°38' E 139°46'0 0.0
2014-Sep-18 01:32N 35°38' E 139°46'0 0.0
2014-Sep-18 00:26N 35°38' E 139°46'0 0.0
2014-Sep-17 23:17N 35°38' E 139°46'0 0.0
2014-Sep-17 22:33N 35°38' E 139°46'6 6.2
2014-Sep-17 21:33N 35°33' E 139°50'1413.5
2014-Sep-17 20:33N 35°20' E 139°45'1212.0
2014-Sep-17 19:33N 35°09' E 139°47'1615.5
2014-Sep-17 18:32N 34°53' E 139°47'1313.8
2014-Sep-17 17:33N 34°53' E 140°03'1616.1
2014-Sep-17 16:33N 35°02' E 140°20'1515.5
2014-Sep-17 15:33N 35°13' E 140°34'1817.6
2014-Sep-17 14:33N 35°27' E 140°47'1917.6
2014-Sep-17 13:28N 35°43' E 140°60'  
2014-Sep-13 21:07N 36°40' E 141°13'1017.3
2014-Sep-13 20:33N 36°30' E 141°11'1817.3
2014-Sep-13 19:31N 36°12' E 141°08'1717.3
2014-Sep-13 18:33N 35°56' E 141°04'1817.7
2014-Sep-13 17:33N 35°39' E 140°59'1918.5
2014-Sep-13 16:33N 35°23' E 140°46'1918.8
2014-Sep-13 15:33N 35°09' E 140°31'1818.6
2014-Sep-13 14:33N 34°58' E 140°14'2018.7
2014-Sep-13 13:29N 34°50' E 139°51'1516.5
2014-Sep-13 12:33N 35°04' E 139°42'1414.3
2014-Sep-13 11:33N 35°18' E 139°44'1414.5
2014-Sep-13 10:33N 35°31' E 139°51'8 8.2
2014-Sep-13 09:33N 35°38' E 139°46'0 0.0
2014-Sep-13 08:33N 35°38' E 139°46'0 0.0
2014-Sep-13 07:33N 35°38' E 139°46'0 0.0
2014-Sep-13 06:33N 35°38' E 139°46'0 0.0
2014-Sep-13 05:33N 35°38' E 139°46'1010.3
2014-Sep-13 04:33N 35°29' E 139°51'1312.7
2014-Sep-13 03:34N 35°17' E 139°45'1313.5
2014-Sep-13 02:33N 35°04' E 139°42'9318.4
2014-Sep-12 21:30N 34°11' E 138°09'15917.5
2014-Sep-12 12:26N 33°53' E 134°58'1820.2
2014-Sep-12 11:34N 34°11' E 134°58'1919.4
2014-Sep-12 10:33N 34°29' E 135°07'1616.0
2014-Sep-12 09:33N 34°36' E 135°24'1 0.4
2014-Sep-12 08:21N 34°37' E 135°25'0 0.0
2014-Sep-12 07:08N 34°37' E 135°25'0 0.0
2014-Sep-12 02:08N 34°37' E 135°25'0 0.1
2014-Sep-12 00:33N 34°37' E 135°25'1515.7
2014-Sep-11 23:33N 34°28' E 135°09'1817.9
2014-Sep-11 22:33N 34°13' E 134°58'23014.3
2014-Sep-11 06:24N 35°00' E 139°32'1517.6
2014-Sep-11 05:33N 35°10' E 139°45'1413.6
2014-Sep-11 04:33N 35°24' E 139°43'1312.5
2014-Sep-11 03:33N 35°36' E 139°47'2 2.2
2014-Sep-11 02:33N 35°38' E 139°46'0 0.0
2014-Sep-11 01:29N 35°38' E 139°46'0 0.0
2014-Sep-11 00:26N 35°38' E 139°46'0 0.0
2014-Sep-10 23:26N 35°38' E 139°46'0 0.0
2014-Sep-10 22:29N 35°38' E 139°46'6 6.4
2014-Sep-10 21:34N 35°33' E 139°50'1413.6
2014-Sep-10 20:32N 35°20' E 139°44'1414.2
2014-Sep-10 19:33N 35°06' E 139°46'1613.9
2014-Sep-10 18:24N 34°53' E 139°57'1416.2
2014-Sep-10 17:33N 34°59' E 140°11'1616.1
2014-Sep-10 16:33N 35°08' E 140°28'1818.2
2014-Sep-10 15:33N 35°22' E 140°43'1918.8
2014-Sep-10 14:33N 35°37' E 140°56'1918.8
2014-Sep-10 13:32N 35°55' E 141°04'  
Track history (hours):
 
Tides and Currents Weather Stations Pressure Air Temp Water Temp Dewpoint Dewpoint Depression Visibility Wind Speed Wind Dir Waves Ship Positions

Shin Mei Maru

Last reported at 2014-Sep-20 12:12 UTC. Time now 2014-Sep-20 22:06 UTC.
Position N 35°05' E 139°43'.

Length 160 m; draft 6.8 m.

Type: Cargo ship. MMSI: 431100922.

Date/timePositionNaut miles runAvg speedWind from/ knotsBaromVisibWave heightAir tempDewpointWater temp
2014-Sep-20 12:12N 35°05' E 139°43'1216.3
2014-Sep-20 11:29N 35°16' E 139°46'1111.8
2014-Sep-20 10:33N 35°27' E 139°47'8 1.4
2014-Sep-20 04:33N 35°35' E 139°47'1313.3
2014-Sep-20 03:33N 35°22' E 139°45'1313.1
2014-Sep-20 02:33N 35°09' E 139°46'24516.2
2014-Sep-19 11:22N 34°05' E 134°58'1619.7
2014-Sep-19 10:32N 34°21' E 135°00'1919.2
2014-Sep-19 09:33N 34°34' E 135°18'7 6.5
2014-Sep-19 08:33N 34°37' E 135°25'0 0.0
2014-Sep-19 07:19N 34°37' E 135°25'0 0.0
2014-Sep-19 06:25N 34°37' E 135°25'0 0.0
2014-Sep-19 05:25N 34°37' E 135°25'0 0.0
2014-Sep-19 04:19N 34°37' E 135°25'0 0.0
2014-Sep-19 02:31N 34°37' E 135°25'0 0.0
2014-Sep-19 00:33N 34°37' E 135°25'1312.8
2014-Sep-18 23:33N 34°30' E 135°12'1716.4
2014-Sep-18 22:33N 34°17' E 134°59'1616.6
2014-Sep-18 21:33N 34°01' E 134°59'24515.3
2014-Sep-18 05:33N 35°09' E 139°44'1313.1
2014-Sep-18 04:33N 35°22' E 139°42'1414.0
2014-Sep-18 03:33N 35°35' E 139°48'3 3.2
2014-Sep-18 02:33N 35°38' E 139°46'0 0.0
2014-Sep-18 01:32N 35°38' E 139°46'0 0.0
2014-Sep-18 00:26N 35°38' E 139°46'0 0.0
2014-Sep-17 23:17N 35°38' E 139°46'0 0.0
2014-Sep-17 22:33N 35°38' E 139°46'6 6.2
2014-Sep-17 21:33N 35°33' E 139°50'1413.5
2014-Sep-17 20:33N 35°20' E 139°45'1212.0
2014-Sep-17 19:33N 35°09' E 139°47'1615.5
2014-Sep-17 18:32N 34°53' E 139°47'1313.8
2014-Sep-17 17:33N 34°53' E 140°03'1616.1
2014-Sep-17 16:33N 35°02' E 140°20'1515.5
2014-Sep-17 15:33N 35°13' E 140°34'1817.6
2014-Sep-17 14:33N 35°27' E 140°47'1917.6
2014-Sep-17 13:28N 35°43' E 140°60'  
2014-Sep-13 21:07N 36°40' E 141°13'1017.3
2014-Sep-13 20:33N 36°30' E 141°11'1817.3
2014-Sep-13 19:31N 36°12' E 141°08'1717.3
2014-Sep-13 18:33N 35°56' E 141°04'1817.7
2014-Sep-13 17:33N 35°39' E 140°59'1918.5
2014-Sep-13 16:33N 35°23' E 140°46'1918.8
2014-Sep-13 15:33N 35°09' E 140°31'1818.6
2014-Sep-13 14:33N 34°58' E 140°14'2018.7
2014-Sep-13 13:29N 34°50' E 139°51'1516.5
2014-Sep-13 12:33N 35°04' E 139°42'1414.3
2014-Sep-13 11:33N 35°18' E 139°44'1414.5
2014-Sep-13 10:33N 35°31' E 139°51'8 8.2
2014-Sep-13 09:33N 35°38' E 139°46'0 0.0
2014-Sep-13 08:33N 35°38' E 139°46'0 0.0
2014-Sep-13 07:33N 35°38' E 139°46'0 0.0
2014-Sep-13 06:33N 35°38' E 139°46'0 0.0
2014-Sep-13 05:33N 35°38' E 139°46'1010.3
2014-Sep-13 04:33N 35°29' E 139°51'1312.7
2014-Sep-13 03:34N 35°17' E 139°45'1313.5
2014-Sep-13 02:33N 35°04' E 139°42'9318.4
2014-Sep-12 21:30N 34°11' E 138°09'15917.5
2014-Sep-12 12:26N 33°53' E 134°58'1820.2
2014-Sep-12 11:34N 34°11' E 134°58'1919.4
2014-Sep-12 10:33N 34°29' E 135°07'1616.0
2014-Sep-12 09:33N 34°36' E 135°24'1 0.4
2014-Sep-12 08:21N 34°37' E 135°25'0 0.0
2014-Sep-12 07:08N 34°37' E 135°25'0 0.0
2014-Sep-12 02:08N 34°37' E 135°25'0 0.1
2014-Sep-12 00:33N 34°37' E 135°25'1515.7
2014-Sep-11 23:33N 34°28' E 135°09'1817.9
2014-Sep-11 22:33N 34°13' E 134°58'23014.3
2014-Sep-11 06:24N 35°00' E 139°32'1517.6
2014-Sep-11 05:33N 35°10' E 139°45'1413.6
2014-Sep-11 04:33N 35°24' E 139°43'1312.5
2014-Sep-11 03:33N 35°36' E 139°47'2 2.2
2014-Sep-11 02:33N 35°38' E 139°46'0 0.0
2014-Sep-11 01:29N 35°38' E 139°46'0 0.0
2014-Sep-11 00:26N 35°38' E 139°46'0 0.0
2014-Sep-10 23:26N 35°38' E 139°46'0 0.0
2014-Sep-10 22:29N 35°38' E 139°46'6 6.4
2014-Sep-10 21:34N 35°33' E 139°50'1413.6
2014-Sep-10 20:32N 35°20' E 139°44'1414.2
2014-Sep-10 19:33N 35°06' E 139°46'1613.9
2014-Sep-10 18:24N 34°53' E 139°57'1416.2
2014-Sep-10 17:33N 34°59' E 140°11'1616.1
2014-Sep-10 16:33N 35°08' E 140°28'1818.2
2014-Sep-10 15:33N 35°22' E 140°43'1918.8
2014-Sep-10 14:33N 35°37' E 140°56'1918.8
2014-Sep-10 13:32N 35°55' E 141°04'  

Dump ship's entire track history